Time;durP1;ratioP1;P1;durP2;ratioP2;P2;SDS_P1;SDS_P2;PMS_P1;PMS_P2;Temp;Humidity;BMP_temperature;BMP_pressure;BME280_temperature;BME280_humidity;BME280_pressure;Samples;Min_cycle;Max_cycle;Signal;HPM_P1;HPM_P2
2022/03/25 00:00:25;;;;;;;47.53;36.90;;;14.70;48.80;;;;;;4970674;28;20046;-86
2022/03/25 00:02:51;;;;;;;47.83;38.05;;;14.70;49.90;;;;;;4984712;28;20027;-84
2022/03/25 00:05:17;;;;;;;54.00;38.95;;;14.60;51.20;;;;;;4995597;28;20046;-86
2022/03/25 00:07:43;;;;;;;48.47;40.08;;;14.60;51.90;;;;;;4965054;28;20043;-85
2022/03/25 00:10:09;;;;;;;60.88;42.33;;;14.50;52.70;;;;;;4967281;28;20041;-83
2022/03/25 00:12:35;;;;;;;54.95;41.38;;;14.50;53.40;;;;;;4973559;28;20042;-83
2022/03/25 00:15:01;;;;;;;63.72;44.90;;;14.50;54.50;;;;;;4974561;28;20097;-83
2022/03/25 00:17:27;;;;;;;58.70;44.63;;;14.50;55.20;;;;;;4963438;28;20468;-85
2022/03/25 00:19:53;;;;;;;57.78;45.10;;;14.40;55.60;;;;;;4969405;28;20504;-84
2022/03/25 00:22:18;;;;;;;56.72;46.40;;;14.30;56.10;;;;;;4958401;28;20066;-85
2022/03/25 00:24:44;;;;;;;55.25;43.78;;;14.30;56.50;;;;;;4982014;28;20061;-84
2022/03/25 00:27:10;;;;;;;57.20;46.97;;;14.30;57.30;;;;;;4967739;28;20054;-85
2022/03/25 00:29:36;;;;;;;57.38;46.55;;;14.20;57.90;;;;;;4968866;28;20051;-85
2022/03/25 00:32:03;;;;;;;61.58;46.42;;;14.20;58.30;;;;;;4964188;28;20050;-84
2022/03/25 00:34:29;;;;;;;64.18;50.67;;;14.20;58.50;;;;;;4989189;28;20026;-83
2022/03/25 00:36:55;;;;;;;57.17;45.38;;;14.20;58.60;;;;;;4965355;28;20191;-83
2022/03/25 00:39:21;;;;;;;55.88;47.22;;;14.10;59.30;;;;;;4965492;28;20068;-82
2022/03/25 00:41:47;;;;;;;62.03;49.55;;;14.10;59.80;;;;;;4967504;28;20448;-84
2022/03/25 00:44:14;;;;;;;62.00;49.90;;;14.00;60.40;;;;;;4958490;28;20122;-87
2022/03/25 00:46:40;;;;;;;62.15;52.20;;;14.00;61.60;;;;;;4957143;28;20047;-87
2022/03/25 00:49:06;;;;;;;69.13;54.70;;;13.90;62.00;;;;;;4956188;28;20424;-86
2022/03/25 00:51:34;;;;;;;67.50;55.88;;;13.90;63.00;;;;;;4957136;29;20073;-86
2022/03/25 00:54:00;;;;;;;68.95;54.72;;;13.80;66.80;;;;;;4954931;29;20034;-86
2022/03/25 00:56:26;;;;;;;79.45;62.47;;;13.70;67.80;;;;;;4957317;28;20031;-87
2022/03/25 00:58:51;;;;;;;82.60;65.55;;;13.70;69.80;;;;;;4962256;28;20038;-87
2022/03/25 01:01:17;;;;;;;74.63;60.88;;;13.50;71.80;;;;;;4967794;28;20036;-87
2022/03/25 01:03:43;;;;;;;78.32;59.97;;;13.50;71.80;;;;;;4957752;29;20090;-87
2022/03/25 01:06:09;;;;;;;77.45;62.83;;;13.50;71.90;;;;;;4961077;28;20404;-88
2022/03/25 01:08:35;;;;;;;72.00;58.83;;;13.50;71.40;;;;;;4974698;28;20037;-87
2022/03/25 01:11:04;;;;;;;76.43;61.08;;;13.50;71.20;;;;;;4989063;28;20039;-87
2022/03/25 01:13:33;;;;;;;76.55;59.65;;;13.50;71.20;;;;;;4979946;28;20090;-86
2022/03/25 01:16:04;;;;;;;78.57;65.05;;;13.40;71.10;;;;;;4976795;28;20123;-87
2022/03/25 01:18:30;;;;;;;84.88;65.32;;;13.30;71.70;;;;;;4974838;28;20033;-86
2022/03/25 01:20:57;;;;;;;86.60;67.55;;;13.30;71.70;;;;;;4961750;28;21970;-87
2022/03/25 01:23:23;;;;;;;79.38;62.92;;;13.10;72.60;;;;;;4977199;28;20039;-87
2022/03/25 01:25:49;;;;;;;83.63;66.85;;;13.00;73.60;;;;;;4981619;28;20076;-86
2022/03/25 01:28:15;;;;;;;90.28;72.55;;;13.00;73.30;;;;;;5000245;28;20113;-87
2022/03/25 01:30:41;;;;;;;76.93;61.75;;;12.80;74.30;;;;;;4995008;28;20045;-85
2022/03/25 01:33:07;;;;;;;81.65;63.25;;;12.70;74.90;;;;;;4989634;28;20029;-85
2022/03/25 01:35:33;;;;;;;88.68;72.93;;;12.80;74.80;;;;;;4987805;28;20436;-85
2022/03/25 01:37:59;;;;;;;77.78;63.85;;;12.70;75.10;;;;;;4972627;28;20376;-85
2022/03/25 01:40:24;;;;;;;71.70;60.42;;;12.70;75.50;;;;;;5002567;28;20080;-82
2022/03/25 01:42:50;;;;;;;85.97;68.93;;;12.60;75.30;;;;;;4979059;28;20035;-83
2022/03/25 01:45:32;;;;;;;85.50;64.97;;;12.70;74.50;;;;;;4994444;28;20038;-84
2022/03/25 01:47:58;;;;;;;83.68;64.43;;;12.60;74.90;;;;;;4965839;28;20051;-84
2022/03/25 01:50:25;;;;;;;76.75;62.88;;;12.60;74.70;;;;;;4979533;28;20054;-83
2022/03/25 01:52:52;;;;;;;79.35;63.08;;;12.70;74.50;;;;;;4987483;28;20045;-83
2022/03/25 01:55:26;;;;;;;89.63;72.70;;;12.70;74.40;;;;;;4978774;28;20037;-84
2022/03/25 01:57:57;;;;;;;79.45;64.38;;;12.70;74.20;;;;;;4997183;28;20441;-86
2022/03/25 02:00:24;;;;;;;90.10;69.47;;;12.50;74.60;;;;;;4978205;28;20046;-86
2022/03/25 02:02:50;;;;;;;78.20;62.83;;;12.50;74.50;;;;;;4967857;28;20076;-85
2022/03/25 02:05:17;;;;;;;85.40;64.60;;;12.50;74.50;;;;;;4999149;28;20041;-86
2022/03/25 02:07:43;;;;;;;81.72;63.13;;;12.40;74.20;;;;;;4992839;28;20046;-86
2022/03/25 02:10:09;;;;;;;82.72;68.97;;;12.50;73.80;;;;;;4982923;28;20388;-86
2022/03/25 02:12:35;;;;;;;93.53;71.30;;;12.30;74.30;;;;;;4990688;28;20022;-85
2022/03/25 02:15:02;;;;;;;88.00;71.00;;;12.20;74.90;;;;;;5008858;28;20037;-84
2022/03/25 02:17:29;;;;;;;86.05;65.95;;;12.00;76.20;;;;;;4979937;28;20030;-84
2022/03/25 02:19:55;;;;;;;88.32;72.05;;;11.90;76.70;;;;;;4985015;28;20039;-85
2022/03/25 02:22:22;;;;;;;77.80;63.25;;;12.00;76.50;;;;;;4968589;28;20129;-84
2022/03/25 02:24:49;;;;;;;74.78;59.55;;;11.90;76.70;;;;;;4961548;28;20038;-85
2022/03/25 02:27:16;;;;;;;77.47;62.10;;;12.00;76.40;;;;;;4976684;28;20039;-82
2022/03/25 02:29:43;;;;;;;84.80;64.80;;;12.00;76.60;;;;;;4996088;28;20129;-81
2022/03/25 02:32:08;;;;;;;76.63;61.22;;;12.10;76.70;;;;;;4968345;28;20038;-81
2022/03/25 02:34:34;;;;;;;89.07;71.43;;;12.10;77.40;;;;;;4980418;28;20525;-81
2022/03/25 02:37:01;;;;;;;85.32;65.22;;;12.00;78.40;;;;;;4989678;28;20550;-81
2022/03/25 02:39:28;;;;;;;87.97;68.53;;;11.90;78.20;;;;;;4992968;28;20030;-79
2022/03/25 02:41:53;;;;;;;83.40;61.95;;;12.00;78.00;;;;;;4980992;28;20035;-80
2022/03/25 02:44:19;;;;;;;81.38;64.93;;;12.10;77.60;;;;;;4975079;28;20445;-80
2022/03/25 02:46:45;;;;;;;77.45;62.92;;;12.00;77.50;;;;;;4990063;28;20696;-80
2022/03/25 02:49:11;;;;;;;80.32;64.57;;;12.00;77.80;;;;;;4989846;28;20046;-80
2022/03/25 02:51:37;;;;;;;78.72;64.22;;;11.80;78.10;;;;;;4997686;28;20510;-83
2022/03/25 02:54:03;;;;;;;77.35;62.22;;;11.80;77.40;;;;;;4972590;28;20042;-82
2022/03/25 02:56:28;;;;;;;92.20;70.47;;;11.90;76.80;;;;;;4983392;28;20030;-88
2022/03/25 02:58:54;;;;;;;82.80;61.38;;;11.80;77.20;;;;;;4979346;28;20031;-85
2022/03/25 03:01:20;;;;;;;83.50;63.70;;;11.80;77.20;;;;;;4971143;28;20044;-85
2022/03/25 03:03:46;;;;;;;73.93;58.17;;;11.90;76.30;;;;;;4978953;28;20046;-84
2022/03/25 03:06:12;;;;;;;73.60;58.60;;;11.80;76.30;;;;;;4987233;28;20448;-84
2022/03/25 03:08:38;;;;;;;86.50;71.65;;;11.80;76.40;;;;;;4978325;28;20034;-85
2022/03/25 03:11:04;;;;;;;78.47;62.88;;;11.70;76.30;;;;;;4977822;28;20034;-84
2022/03/25 03:13:30;;;;;;;79.25;62.45;;;11.60;76.50;;;;;;4970669;28;20034;-84
2022/03/25 03:15:56;;;;;;;92.38;71.05;;;11.70;75.80;;;;;;4984338;28;20050;-84
2022/03/25 03:18:21;;;;;;;77.25;61.05;;;11.60;76.20;;;;;;4994464;28;20053;-83
2022/03/25 03:20:47;;;;;;;80.28;58.75;;;11.60;76.10;;;;;;4997225;28;20039;-83
2022/03/25 03:23:13;;;;;;;84.90;63.15;;;11.70;75.80;;;;;;5001787;28;20113;-84
2022/03/25 03:25:39;;;;;;;86.88;68.00;;;11.70;75.30;;;;;;4971966;28;20039;-87
2022/03/25 03:28:05;;;;;;;88.68;71.63;;;11.60;75.70;;;;;;4961172;28;20073;-87
2022/03/25 03:30:31;;;;;;;83.78;66.05;;;11.50;76.00;;;;;;4989703;28;20066;-85
2022/03/25 03:33:04;;;;;;;92.00;70.85;;;11.50;76.00;;;;;;4970998;28;20121;-86
2022/03/25 03:35:34;;;;;;;82.03;62.45;;;11.40;76.60;;;;;;4995294;28;20038;-83
2022/03/25 03:38:00;;;;;;;77.65;59.80;;;11.40;76.40;;;;;;4983049;28;20085;-84
2022/03/25 03:40:26;;;;;;;82.13;61.95;;;11.40;76.20;;;;;;4989135;28;20048;-84
2022/03/25 03:42:52;;;;;;;74.65;59.63;;;11.40;76.10;;;;;;4996979;28;20034;-83
2022/03/25 03:45:18;;;;;;;87.80;66.72;;;11.40;76.20;;;;;;4988244;28;20459;-85
2022/03/25 03:47:44;;;;;;;87.40;62.85;;;11.30;76.70;;;;;;4977229;28;20515;-86
2022/03/25 03:50:14;;;;;;;81.20;62.75;;;11.20;76.90;;;;;;4959738;28;20132;-87
2022/03/25 03:52:41;;;;;;;77.07;60.13;;;11.30;76.60;;;;;;4982604;28;20035;-85
2022/03/25 03:55:08;;;;;;;80.07;60.58;;;11.30;76.50;;;;;;4976829;28;20039;-85
2022/03/25 03:57:38;;;;;;;88.00;67.88;;;11.30;76.50;;;;;;4987453;28;20085;-86
2022/03/25 04:00:12;;;;;;;79.82;60.80;;;11.30;76.20;;;;;;4964267;28;20035;-85
2022/03/25 04:02:38;;;;;;;81.18;61.63;;;11.20;76.60;;;;;;4970670;28;20039;-85
2022/03/25 04:05:05;;;;;;;71.65;57.10;;;11.30;75.90;;;;;;4977716;28;20061;-85
2022/03/25 04:07:31;;;;;;;83.15;64.68;;;11.40;75.90;;;;;;4976388;28;20043;-84
2022/03/25 04:09:57;;;;;;;82.10;61.38;;;11.30;76.00;;;;;;4984438;28;20042;-84
2022/03/25 04:12:22;;;;;;;80.22;61.83;;;11.20;76.30;;;;;;4963484;28;20041;-84
2022/03/25 04:14:48;;;;;;;73.03;57.05;;;11.20;75.90;;;;;;4980013;28;20031;-84
2022/03/25 04:17:14;;;;;;;78.40;61.28;;;11.30;75.40;;;;;;4960182;28;20402;-84
2022/03/25 04:19:40;;;;;;;86.22;62.92;;;11.20;75.60;;;;;;4988113;28;20038;-85
2022/03/25 04:22:06;;;;;;;71.05;55.15;;;11.20;75.30;;;;;;4975416;28;20027;-86
2022/03/25 04:24:32;;;;;;;78.97;63.15;;;11.10;75.60;;;;;;4959879;28;20038;-83
2022/03/25 04:26:58;;;;;;;71.90;53.00;;;11.10;75.70;;;;;;4977152;28;20034;-83
2022/03/25 04:29:24;;;;;;;80.15;56.10;;;11.10;75.20;;;;;;4984335;28;20046;-84
2022/03/25 04:31:50;;;;;;;82.80;57.38;;;11.20;75.10;;;;;;4992769;28;20041;-83
2022/03/25 04:34:16;;;;;;;80.50;59.05;;;11.20;74.70;;;;;;4976205;28;20026;-83
2022/03/25 04:36:41;;;;;;;73.00;54.92;;;11.20;74.50;;;;;;4960024;28;20622;-83
2022/03/25 04:39:07;;;;;;;73.82;59.05;;;11.20;74.10;;;;;;4997290;28;20034;-83
2022/03/25 04:41:33;;;;;;;75.50;55.00;;;11.10;74.10;;;;;;4976590;28;20114;-82
2022/03/25 04:43:58;;;;;;;75.32;55.33;;;11.10;74.40;;;;;;4986914;28;20056;-85
2022/03/25 04:46:24;;;;;;;70.57;53.22;;;11.10;74.50;;;;;;4970261;28;20471;-84
2022/03/25 04:48:50;;;;;;;76.50;54.75;;;11.10;73.90;;;;;;4979954;28;20483;-84
2022/03/25 04:51:15;;;;;;;66.88;51.55;;;11.20;73.10;;;;;;4972969;28;20054;-83
2022/03/25 04:53:42;;;;;;;72.68;52.22;;;11.30;72.60;;;;;;5005955;28;20045;-84
2022/03/25 04:56:08;;;;;;;79.32;56.25;;;11.20;72.30;;;;;;4975304;28;20042;-84
2022/03/25 04:58:34;;;;;;;78.32;55.22;;;11.30;71.90;;;;;;4963677;28;20043;-86
2022/03/25 05:01:00;;;;;;;74.75;51.83;;;11.20;71.60;;;;;;4990477;28;20038;-84
2022/03/25 05:03:26;;;;;;;70.25;51.70;;;11.20;71.60;;;;;;4980158;28;20046;-87
2022/03/25 05:05:52;;;;;;;75.40;56.80;;;11.10;72.10;;;;;;4982870;28;20039;-87
2022/03/25 05:08:17;;;;;;;73.72;52.63;;;11.10;72.20;;;;;;4975854;28;20471;-87
2022/03/25 05:10:44;;;;;;;77.63;54.03;;;11.00;72.40;;;;;;4978873;28;20041;-87
2022/03/25 05:13:09;;;;;;;74.30;54.97;;;11.00;72.40;;;;;;4974432;28;20122;-87
2022/03/25 05:15:35;;;;;;;67.97;49.40;;;11.00;72.40;;;;;;4975773;28;20065;-86
2022/03/25 05:18:01;;;;;;;72.20;50.55;;;11.10;72.20;;;;;;4988973;28;20039;-84
2022/03/25 05:20:27;;;;;;;69.18;49.47;;;11.10;72.10;;;;;;4985880;28;20038;-86
2022/03/25 05:22:53;;;;;;;65.28;50.75;;;11.10;72.00;;;;;;4961620;28;20506;-86
2022/03/25 05:25:20;;;;;;;70.60;50.65;;;11.20;71.70;;;;;;4982281;28;20030;-84
2022/03/25 05:27:49;;;;;;;71.28;52.28;;;11.20;71.60;;;;;;4983819;28;20098;-84
2022/03/25 05:30:18;;;;;;;73.70;56.05;;;11.30;71.50;;;;;;4976522;28;20027;-85
2022/03/25 05:32:44;;;;;;;73.13;56.65;;;11.10;71.10;;;;;;4983123;28;20039;-81
2022/03/25 05:35:10;;;;;;;79.78;56.30;;;10.70;71.40;;;;;;4967122;28;20439;-83
2022/03/25 05:37:38;;;;;;;80.68;55.15;;;10.30;72.50;;;;;;4982546;28;20052;-83
2022/03/25 05:40:04;;;;;;;69.80;52.38;;;10.20;72.60;;;;;;4990359;28;20109;-83
2022/03/25 05:42:30;;;;;;;73.65;51.15;;;10.00;72.90;;;;;;4959131;28;20063;-83
2022/03/25 05:44:56;;;;;;;73.50;49.85;;;9.80;73.50;;;;;;4989069;28;20034;-87
2022/03/25 05:47:22;;;;;;;69.90;48.40;;;9.70;73.20;;;;;;4977512;28;20410;-86
2022/03/25 05:49:48;;;;;;;66.13;47.85;;;9.60;73.40;;;;;;4966492;28;20030;-87
2022/03/25 05:52:14;;;;;;;71.32;44.65;;;9.50;73.00;;;;;;4972082;28;20548;-87
2022/03/25 05:54:40;;;;;;;74.45;45.38;;;9.60;72.30;;;;;;4985757;28;20043;-87
2022/03/25 05:57:06;;;;;;;64.82;43.08;;;9.60;71.90;;;;;;4994271;28;20058;-86
2022/03/25 05:59:32;;;;;;;58.53;40.75;;;9.70;71.70;;;;;;4985809;28;20070;-87
2022/03/25 06:01:58;;;;;;;54.28;39.42;;;9.90;70.80;;;;;;4988374;28;20105;-91
2022/03/25 06:04:23;;;;;;;71.32;42.40;;;10.00;70.50;;;;;;4980743;28;20501;-83
2022/03/25 06:06:49;;;;;;;71.57;41.20;;;10.00;69.20;;;;;;4974976;28;20054;-87
2022/03/25 06:09:15;;;;;;;64.93;42.95;;;10.00;69.00;;;;;;4984689;28;20043;-85
2022/03/25 06:11:41;;;;;;;57.72;41.20;;;10.00;69.00;;;;;;4976476;28;20043;-86
2022/03/25 06:14:06;;;;;;;68.90;43.30;;;9.80;69.40;;;;;;4960078;28;20035;-86
2022/03/25 06:16:32;;;;;;;62.15;41.88;;;9.80;68.60;;;;;;4987284;28;20046;-86
2022/03/25 06:18:58;;;;;;;60.40;40.72;;;9.80;68.80;;;;;;4978184;28;20062;-82
2022/03/25 06:21:24;;;;;;;68.70;44.90;;;9.80;68.90;;;;;;4977631;28;20046;-82
2022/03/25 06:23:50;;;;;;;59.03;42.38;;;9.90;68.80;;;;;;4982114;28;20387;-83
2022/03/25 06:26:17;;;;;;;56.83;39.97;;;9.80;67.90;;;;;;4982536;28;20367;-82
2022/03/25 06:28:42;;;;;;;64.30;41.65;;;9.70;68.00;;;;;;4986758;28;20043;-83
2022/03/25 06:31:08;;;;;;;64.47;41.15;;;9.70;67.80;;;;;;4989321;28;20034;-83
2022/03/25 06:33:37;;;;;;;60.80;39.17;;;9.70;67.40;;;;;;4998851;28;20063;-83
2022/03/25 06:36:04;;;;;;;62.67;38.78;;;9.80;66.90;;;;;;4997012;28;20394;-85
2022/03/25 06:38:29;;;;;;;56.38;37.42;;;9.80;65.90;;;;;;4983282;28;20043;-85
2022/03/25 06:40:56;;;;;;;53.30;34.00;;;9.70;65.60;;;;;;4977218;28;20113;-85
2022/03/25 06:43:21;;;;;;;56.00;36.75;;;9.80;65.30;;;;;;4980591;28;20486;-85
2022/03/25 06:45:47;;;;;;;55.60;36.17;;;9.90;64.90;;;;;;4979456;28;20081;-84
2022/03/25 06:48:13;;;;;;;63.80;36.53;;;10.00;64.70;;;;;;4995221;28;20418;-85
2022/03/25 06:50:39;;;;;;;55.00;34.15;;;10.00;65.20;;;;;;4980052;28;20178;-84
2022/03/25 06:53:05;;;;;;;51.78;36.83;;;10.10;64.90;;;;;;4995982;28;20125;-85
2022/03/25 06:55:32;;;;;;;53.25;36.67;;;10.20;64.70;;;;;;4988159;28;20035;-85
2022/03/25 06:57:58;;;;;;;61.58;37.10;;;10.20;64.40;;;;;;4962996;28;20089;-85
2022/03/25 07:00:24;;;;;;;51.80;36.38;;;10.30;64.50;;;;;;4986161;28;20404;-84
2022/03/25 07:02:55;;;;;;;57.10;36.00;;;10.30;64.60;;;;;;4992816;28;20447;-82
2022/03/25 07:05:23;;;;;;;56.67;37.83;;;10.40;64.60;;;;;;4984494;28;20046;-83
2022/03/25 07:07:49;;;;;;;57.30;37.20;;;10.40;64.30;;;;;;4998423;28;20034;-83
2022/03/25 07:10:16;;;;;;;57.95;37.40;;;10.50;64.30;;;;;;4993059;28;20061;-83
2022/03/25 07:12:44;;;;;;;59.67;37.38;;;10.60;64.50;;;;;;4994740;28;20034;-82
2022/03/25 07:15:10;;;;;;;53.25;36.72;;;10.70;65.40;;;;;;4978654;28;20038;-82
2022/03/25 07:17:41;;;;;;;52.53;36.92;;;10.80;65.40;;;;;;4994899;28;20041;-83
2022/03/25 07:20:08;;;;;;;61.40;38.63;;;10.90;65.00;;;;;;4994008;28;20149;-83
2022/03/25 07:22:34;;;;;;;54.25;38.10;;;11.10;64.50;;;;;;4995609;28;20029;-81
2022/03/25 07:25:00;;;;;;;57.13;39.67;;;11.20;64.70;;;;;;4980625;28;20098;-80
2022/03/25 07:27:26;;;;;;;52.25;34.30;;;11.30;64.40;;;;;;4972392;28;20069;-82
2022/03/25 07:29:52;;;;;;;49.08;35.83;;;11.50;64.30;;;;;;4986430;28;20066;-79
2022/03/25 07:32:18;;;;;;;57.30;37.33;;;11.70;64.00;;;;;;4981974;28;20392;-81
2022/03/25 07:34:43;;;;;;;54.28;35.65;;;11.80;62.60;;;;;;4984902;28;20498;-84
2022/03/25 07:37:10;;;;;;;47.80;31.42;;;11.90;60.80;;;;;;4992191;28;20031;-85
2022/03/25 07:39:35;;;;;;;48.13;31.73;;;12.00;60.30;;;;;;4979710;28;20064;-85
2022/03/25 07:42:01;;;;;;;45.85;32.65;;;12.10;58.80;;;;;;4980795;28;20025;-85
2022/03/25 07:44:27;;;;;;;45.63;29.05;;;12.20;57.70;;;;;;4996086;28;20053;-83
2022/03/25 07:46:53;;;;;;;46.28;31.38;;;12.30;57.60;;;;;;4997695;28;20046;-84
2022/03/25 07:49:19;;;;;;;46.95;32.20;;;12.40;57.10;;;;;;4996740;28;20045;-82
2022/03/25 07:51:44;;;;;;;49.38;31.83;;;12.50;57.00;;;;;;4996585;28;20042;-85
2022/03/25 07:54:10;;;;;;;48.05;32.53;;;12.60;56.00;;;;;;4996830;28;20049;-85
2022/03/25 07:56:37;;;;;;;43.55;30.48;;;12.80;56.70;;;;;;4978100;28;20188;-81
2022/03/25 07:59:03;;;;;;;44.65;32.20;;;12.90;56.30;;;;;;4995863;28;20069;-81
2022/03/25 08:01:29;;;;;;;48.00;30.85;;;13.00;55.70;;;;;;4977729;28;20438;-80
2022/03/25 08:03:56;;;;;;;53.40;34.03;;;13.20;56.10;;;;;;4995278;28;20044;-81
2022/03/25 08:06:22;;;;;;;48.97;34.78;;;13.40;54.50;;;;;;4995070;28;20049;-80
2022/03/25 08:08:49;;;;;;;50.80;35.15;;;13.50;54.60;;;;;;4995449;28;20061;-82
2022/03/25 08:11:17;;;;;;;54.15;36.50;;;13.60;54.80;;;;;;4994306;28;20039;-82
2022/03/25 08:13:43;;;;;;;54.97;37.97;;;13.70;54.30;;;;;;4994294;28;20043;-79
2022/03/25 08:16:08;;;;;;;50.80;36.47;;;13.80;54.40;;;;;;4994948;28;20085;-79
2022/03/25 08:18:34;;;;;;;56.47;36.83;;;13.90;54.10;;;;;;4994577;28;20045;-83
2022/03/25 08:21:00;;;;;;;56.58;39.13;;;14.10;53.80;;;;;;4996108;28;20117;-84
2022/03/25 08:28:57;;;;;;;52.40;35.75;;;14.40;53.10;;;;;;4985120;28;20048;-83
2022/03/25 08:31:24;;;;;;;54.58;33.75;;;14.60;53.10;;;;;;4989402;28;20061;-84
2022/03/25 08:33:50;;;;;;;54.33;36.17;;;14.70;53.50;;;;;;4977227;28;20045;-83
2022/03/25 08:36:17;;;;;;;56.95;37.72;;;14.90;54.40;;;;;;4978053;28;20038;-84
2022/03/25 08:38:43;;;;;;;56.97;39.20;;;15.10;54.00;;;;;;4990255;28;20034;-79
2022/03/25 08:41:09;;;;;;;70.70;48.67;;;15.30;52.00;;;;;;4988014;28;20078;-78
2022/03/25 08:43:36;;;;;;;108.50;79.13;;;15.40;52.10;;;;;;4982557;28;20414;-79
2022/03/25 08:46:03;;;;;;;65.72;43.88;;;15.50;52.00;;;;;;4989802;28;20053;-78
2022/03/25 08:48:29;;;;;;;64.82;39.70;;;15.60;50.80;;;;;;4985106;28;20041;-77
2022/03/25 08:50:55;;;;;;;57.15;38.30;;;15.70;49.50;;;;;;4993145;28;20053;-78
2022/03/25 08:53:21;;;;;;;54.60;34.10;;;15.80;49.10;;;;;;4992873;28;20035;-78
2022/03/25 08:55:47;;;;;;;52.03;36.25;;;15.90;49.90;;;;;;4992778;28;20061;-78
2022/03/25 08:58:13;;;;;;;46.78;32.28;;;16.00;49.20;;;;;;4993290;28;20490;-78
2022/03/25 09:00:39;;;;;;;49.38;34.35;;;16.20;49.90;;;;;;4969973;28;20050;-78
2022/03/25 09:03:05;;;;;;;52.78;35.67;;;16.50;49.80;;;;;;4985248;28;20043;-77
2022/03/25 09:05:31;;;;;;;47.60;33.60;;;16.60;48.90;;;;;;4991015;28;20026;-78
2022/03/25 09:07:56;;;;;;;48.70;34.28;;;16.80;48.90;;;;;;4991565;28;20049;-77
2022/03/25 09:10:22;;;;;;;50.67;37.22;;;17.00;48.40;;;;;;4991815;28;20061;-78
2022/03/25 09:12:48;;;;;;;50.90;34.45;;;17.10;48.60;;;;;;4991564;28;20039;-78
2022/03/25 09:15:15;;;;;;;49.45;35.67;;;17.30;47.90;;;;;;4991674;28;20047;-77
2022/03/25 09:17:42;;;;;;;52.10;34.90;;;17.40;47.60;;;;;;4978175;28;20113;-77
2022/03/25 09:20:09;;;;;;;50.03;33.53;;;17.60;47.60;;;;;;4988713;28;20508;-77
2022/03/25 09:22:35;;;;;;;61.97;41.55;;;17.80;47.40;;;;;;4985747;28;20126;-78
2022/03/25 09:25:02;;;;;;;59.13;41.20;;;17.90;44.70;;;;;;4990338;28;20129;-80
2022/03/25 09:27:28;;;;;;;53.47;36.88;;;17.90;44.20;;;;;;4974839;28;20050;-78
2022/03/25 09:29:53;;;;;;;51.50;35.88;;;18.10;45.50;;;;;;4987853;28;20057;-77
2022/03/25 09:32:19;;;;;;;51.13;34.97;;;18.20;45.50;;;;;;4962803;28;20443;-79
2022/03/25 09:37:29;;;;;;;56.25;38.15;;;18.60;44.40;;;;;;4975256;28;20489;-84
2022/03/25 09:39:55;;;;;;;55.53;37.40;;;18.70;44.10;;;;;;4975607;28;20034;-83
2022/03/25 09:42:21;;;;;;;50.88;35.17;;;18.90;43.60;;;;;;4974757;28;20490;-84
2022/03/25 09:44:49;;;;;;;54.30;37.20;;;19.10;43.50;;;;;;4990727;28;20053;-84
2022/03/25 09:47:16;;;;;;;49.22;35.45;;;19.20;42.80;;;;;;4994163;28;20046;-84
2022/03/25 09:49:43;;;;;;;54.95;36.13;;;19.40;43.30;;;;;;4996733;28;20593;-84
2022/03/25 09:52:09;;;;;;;59.05;39.00;;;19.60;43.00;;;;;;4997862;28;20042;-85
2022/03/25 09:54:35;;;;;;;52.67;37.13;;;19.70;41.20;;;;;;4997857;28;20030;-84
2022/03/25 09:57:02;;;;;;;56.25;36.85;;;19.80;41.50;;;;;;4997616;28;20045;-84
2022/03/25 09:59:27;;;;;;;53.83;38.72;;;20.00;41.70;;;;;;4980662;28;20406;-84
2022/03/25 10:01:53;;;;;;;49.83;33.88;;;20.10;40.30;;;;;;4997787;28;20049;-85
2022/03/25 10:04:35;;;;;;;54.65;39.00;;;20.30;40.00;;;;;;4997787;28;20185;-84
2022/03/25 10:07:13;;;;;;;51.75;36.15;;;20.40;38.40;;;;;;4997668;28;20054;-84
2022/03/25 10:09:39;;;;;;;53.65;34.72;;;20.60;39.30;;;;;;4998294;28;20046;-84
2022/03/25 10:12:21;;;;;;;59.75;38.65;;;20.80;38.80;;;;;;4997850;28;20556;-84
2022/03/25 10:14:51;;;;;;;49.40;36.58;;;21.00;36.80;;;;;;4997466;28;20034;-84
2022/03/25 10:17:18;;;;;;;58.92;38.17;;;21.10;37.00;;;;;;4997811;28;20042;-83
2022/03/25 10:19:54;;;;;;;52.70;39.17;;;21.20;36.10;;;;;;4980981;28;20483;-83
2022/03/25 10:22:20;;;;;;;50.05;33.75;;;21.20;36.40;;;;;;4997082;28;20384;-85
2022/03/25 10:24:53;;;;;;;48.90;34.50;;;21.30;37.60;;;;;;4997382;28;20046;-85
2022/03/25 10:27:29;;;;;;;57.53;41.35;;;21.50;37.70;;;;;;4975737;28;20053;-85
2022/03/25 10:29:55;;;;;;;60.58;40.92;;;21.60;37.60;;;;;;4980279;28;20030;-84
2022/03/25 10:32:25;;;;;;;51.65;36.47;;;21.60;38.60;;;;;;4997047;28;20045;-84
2022/03/25 10:35:09;;;;;;;57.70;38.40;;;21.80;38.90;;;;;;4972732;28;20034;-85
2022/03/25 10:37:38;;;;;;;59.85;39.67;;;21.90;38.30;;;;;;4984132;28;20039;-80
2022/03/25 10:40:06;;;;;;;52.75;36.75;;;22.10;40.00;;;;;;4985269;28;20034;-80
2022/03/25 10:42:33;;;;;;;55.05;38.00;;;22.20;39.70;;;;;;4984038;28;20062;-82
2022/03/25 10:44:59;;;;;;;49.08;35.10;;;22.40;38.80;;;;;;4979532;28;20096;-80
2022/03/25 10:47:26;;;;;;;52.38;36.97;;;22.50;39.10;;;;;;4992078;28;20034;-81
2022/03/25 10:49:53;;;;;;;51.58;35.45;;;22.70;38.50;;;;;;4980976;28;20038;-80
2022/03/25 10:52:31;;;;;;;59.30;38.50;;;22.80;38.20;;;;;;4985966;28;20034;-81
2022/03/25 10:55:17;;;;;;;58.63;38.97;;;22.90;37.70;;;;;;4978416;28;20125;-81
2022/03/25 10:57:53;;;;;;;51.88;36.88;;;23.00;36.70;;;;;;4976884;28;20078;-80
2022/03/25 11:00:19;;;;;;;50.85;36.05;;;23.20;37.20;;;;;;4974609;28;20062;-81
2022/03/25 11:02:45;;;;;;;52.60;37.28;;;23.30;37.00;;;;;;4959206;28;20181;-81
2022/03/25 11:05:13;;;;;;;53.80;39.05;;;23.50;37.10;;;;;;4959247;28;20034;-80
2022/03/25 11:07:42;;;;;;;53.05;37.83;;;23.60;35.50;;;;;;4962497;28;20419;-80
2022/03/25 11:10:09;;;;;;;56.33;39.13;;;23.60;35.50;;;;;;4989931;28;20069;-82
2022/03/25 11:12:35;;;;;;;50.47;36.00;;;23.80;35.20;;;;;;4982502;28;20046;-84
2022/03/25 11:15:01;;;;;;;59.35;41.38;;;23.90;34.80;;;;;;4959699;28;20400;-85
2022/03/25 11:17:27;;;;;;;81.20;46.60;;;23.90;32.70;;;;;;4964991;28;20058;-84
2022/03/25 11:19:59;;;;;;;60.88;41.00;;;23.90;31.70;;;;;;4997131;28;20058;-84
2022/03/25 11:22:26;;;;;;;61.50;43.13;;;23.70;31.70;;;;;;4979788;28;20525;-85
2022/03/25 11:24:55;;;;;;;52.67;38.03;;;23.70;30.30;;;;;;4970383;28;20051;-85
2022/03/25 11:27:28;;;;;;;62.55;42.92;;;23.80;31.90;;;;;;4987476;28;20023;-85
2022/03/25 11:30:09;;;;;;;53.90;40.35;;;23.90;30.90;;;;;;4985539;28;20042;-85
2022/03/25 11:32:48;;;;;;;64.20;41.28;;;24.00;30.30;;;;;;4990089;28;20034;-86
2022/03/25 11:35:20;;;;;;;56.95;40.20;;;24.00;29.90;;;;;;4977778;28;20054;-86
2022/03/25 11:37:45;;;;;;;57.83;39.60;;;24.20;31.00;;;;;;4986937;28;20034;-85
2022/03/25 11:40:25;;;;;;;56.55;37.33;;;24.40;31.80;;;;;;4996750;28;20081;-83
2022/03/25 11:42:56;;;;;;;57.42;39.47;;;24.90;32.10;;;;;;4987095;28;20050;-83
2022/03/25 11:45:22;;;;;;;66.82;41.97;;;25.10;30.30;;;;;;4977855;28;20062;-82
2022/03/25 11:48:00;;;;;;;56.30;39.72;;;25.20;30.70;;;;;;4960075;28;20061;-83
2022/03/25 11:50:34;;;;;;;63.40;42.85;;;25.70;32.40;;;;;;4979839;28;20053;-84
2022/03/25 11:53:15;;;;;;;66.45;45.78;;;26.10;29.50;;;;;;4990063;28;20372;-83
2022/03/25 11:56:06;;;;;;;75.60;46.60;;;26.10;29.60;;;;;;4983612;28;20050;-80
2022/03/25 11:58:37;;;;;;;65.43;42.90;;;26.10;28.60;;;;;;4983396;28;20053;-78
2022/03/25 12:01:05;;;;;;;81.03;48.10;;;26.40;29.50;;;;;;4991854;28;20047;-79
2022/03/25 12:03:50;;;;;;;65.07;46.72;;;26.40;29.30;;;;;;4988180;28;20129;-84
2022/03/25 12:06:18;;;;;;;66.22;45.17;;;26.00;30.70;;;;;;4982470;28;20090;-79
2022/03/25 12:09:06;;;;;;;58.15;41.95;;;26.00;29.20;;;;;;4982675;28;20540;-80
2022/03/25 12:11:58;;;;;;;59.45;42.65;;;26.70;30.80;;;;;;4987316;28;20133;-79
2022/03/25 12:14:36;;;;;;;63.67;45.17;;;27.10;28.40;;;;;;4991574;28;20031;-79
2022/03/25 12:17:25;;;;;;;65.03;43.70;;;27.00;26.70;;;;;;4967192;28;20667;-85
2022/03/25 12:19:55;;;;;;;61.03;42.38;;;27.10;26.00;;;;;;4958651;28;20114;-84
2022/03/25 12:22:21;;;;;;;67.57;41.85;;;27.10;26.30;;;;;;4989836;28;20043;-84
2022/03/25 12:24:51;;;;;;;61.28;39.88;;;27.20;26.70;;;;;;4991266;28;20053;-84
2022/03/25 12:27:18;;;;;;;45.83;35.67;;;27.40;25.30;;;;;;4991921;28;20046;-85
2022/03/25 12:29:50;;;;;;;53.03;36.90;;;27.60;25.10;;;;;;4993434;28;20069;-84
2022/03/25 12:32:17;;;;;;;47.15;33.42;;;27.70;25.90;;;;;;4960766;28;20053;-84
2022/03/25 12:35:06;;;;;;;54.40;37.22;;;27.60;24.40;;;;;;4982774;28;20117;-85
2022/03/25 12:37:34;;;;;;;61.88;38.80;;;27.40;24.30;;;;;;4986872;28;20156;-84